Time;durP1;ratioP1;P1;durP2;ratioP2;P2;SDS_P1;SDS_P2;PMS_P1;PMS_P2;Temp;Humidity;BMP_temperature;BMP_pressure;BME280_temperature;BME280_humidity;BME280_pressure;Samples;Min_cycle;Max_cycle;Signal;HPM_P1;HPM_P2
2023/07/09 00:01:41;;;;;;;8.40;6.20;;;26.60;58.10;;;;;;5073532;28;20452;-55
2023/07/09 00:04:10;;;;;;;7.70;6.70;;;26.50;58.30;;;;;;5073392;28;20813;-55
2023/07/09 00:06:38;;;;;;;6.73;5.80;;;26.40;58.50;;;;;;5073446;28;20448;-55
2023/07/09 00:09:05;;;;;;;6.33;5.50;;;26.30;58.60;;;;;;5073457;28;20518;-55
2023/07/09 00:11:32;;;;;;;9.73;6.70;;;26.30;58.90;;;;;;5073313;28;20491;-55
2023/07/09 00:13:59;;;;;;;8.20;6.83;;;26.20;59.40;;;;;;5072825;28;20493;-55
2023/07/09 00:16:27;;;;;;;11.10;6.90;;;26.20;59.00;;;;;;5074105;28;20506;-55
2023/07/09 00:18:53;;;;;;;8.03;6.40;;;26.20;59.30;;;;;;5073145;28;20488;-55
2023/07/09 00:21:22;;;;;;;8.03;6.83;;;26.10;59.20;;;;;;5074058;28;20452;-55
2023/07/09 00:23:50;;;;;;;9.37;6.07;;;26.00;59.60;;;;;;5072853;28;21009;-55
2023/07/09 00:26:20;;;;;;;8.60;6.90;;;25.90;59.90;;;;;;5073162;28;20489;-55
2023/07/09 00:28:47;;;;;;;8.30;6.10;;;25.90;60.00;;;;;;5073226;28;20440;-55
2023/07/09 00:31:16;;;;;;;6.90;5.73;;;25.90;60.30;;;;;;5073349;28;20528;-56
2023/07/09 00:33:45;;;;;;;9.30;6.47;;;25.80;60.80;;;;;;5072782;28;21016;-55
2023/07/09 00:36:15;;;;;;;7.80;7.00;;;25.80;61.00;;;;;;5073066;28;20449;-55
2023/07/09 00:38:47;;;;;;;7.70;7.00;;;25.70;61.00;;;;;;5073070;28;20425;-55
2023/07/09 00:41:19;;;;;;;7.57;6.40;;;25.70;61.40;;;;;;5073223;28;20544;-55
2023/07/09 00:43:46;;;;;;;8.17;7.03;;;25.70;61.70;;;;;;5073071;28;20461;-55
2023/07/09 00:46:57;;;;;;;8.27;6.57;;;25.60;62.00;;;;;;5072728;28;20950;-55
2023/07/09 00:49:30;;;;;;;7.50;6.37;;;25.60;62.40;;;;;;5072590;28;20453;-55
2023/07/09 00:52:01;;;;;;;8.70;7.43;;;25.50;62.50;;;;;;5072813;28;20444;-55
2023/07/09 00:54:36;;;;;;;8.93;7.30;;;25.50;63.00;;;;;;5072973;28;20836;-55
2023/07/09 00:57:08;;;;;;;8.10;6.97;;;25.40;63.30;;;;;;5072623;28;20929;-55
2023/07/09 00:59:36;;;;;;;7.20;6.50;;;25.40;63.40;;;;;;5073098;28;20444;-54
2023/07/09 01:02:03;;;;;;;8.90;7.13;;;25.30;63.20;;;;;;5073100;28;20444;-54
2023/07/09 01:04:30;;;;;;;10.10;6.00;;;25.30;63.50;;;;;;5072814;28;20448;-55
2023/07/09 01:06:57;;;;;;;8.33;7.30;;;25.20;63.70;;;;;;5072400;28;20951;-54
2023/07/09 01:09:25;;;;;;;9.40;7.03;;;25.20;63.90;;;;;;5072813;28;20445;-54
2023/07/09 01:11:56;;;;;;;9.27;7.40;;;25.20;64.30;;;;;;5072457;28;20453;-54
2023/07/09 01:14:27;;;;;;;8.10;7.30;;;25.10;64.50;;;;;;5072688;28;20465;-54
2023/07/09 01:16:59;;;;;;;9.00;6.90;;;25.10;65.20;;;;;;5072675;28;20460;-54
2023/07/09 01:19:28;;;;;;;8.67;7.27;;;25.10;65.50;;;;;;5072651;28;20464;-54
2023/07/09 01:21:58;;;;;;;12.30;8.60;;;25.10;65.50;;;;;;5072526;28;20448;-54
2023/07/09 01:24:49;;;;;;;9.30;7.87;;;25.10;65.80;;;;;;5072543;28;20436;-54
2023/07/09 01:27:16;;;;;;;10.57;8.80;;;25.00;66.00;;;;;;5074998;28;20440;-54
2023/07/09 01:29:45;;;;;;;10.07;8.10;;;25.00;66.30;;;;;;5076234;28;20471;-54
2023/07/09 01:32:14;;;;;;;10.10;8.20;;;25.00;67.00;;;;;;5076888;28;20463;-54
2023/07/09 01:34:42;;;;;;;11.00;7.10;;;24.90;67.10;;;;;;5076038;28;20483;-54
2023/07/09 01:37:10;;;;;;;7.50;6.70;;;24.90;67.80;;;;;;5076107;28;20597;-54
2023/07/09 01:39:40;;;;;;;8.03;7.23;;;24.80;67.70;;;;;;5075749;28;20965;-54
2023/07/09 01:42:08;;;;;;;7.57;6.87;;;24.70;68.10;;;;;;5075972;28;20448;-54
2023/07/09 01:44:35;;;;;;;7.60;6.80;;;24.70;68.00;;;;;;5076001;28;20440;-54
2023/07/09 01:47:03;;;;;;;8.83;6.67;;;24.70;67.90;;;;;;5076021;28;20555;-54
2023/07/09 01:49:32;;;;;;;13.90;7.10;;;24.60;67.70;;;;;;5075974;28;20453;-54
2023/07/09 01:52:00;;;;;;;10.13;6.43;;;24.50;67.80;;;;;;5075520;28;20457;-55
2023/07/09 01:54:29;;;;;;;8.33;6.60;;;24.50;67.80;;;;;;5076929;28;20484;-55
2023/07/09 01:57:13;;;;;;;9.57;7.07;;;24.50;68.20;;;;;;5075534;28;20487;-55
2023/07/09 01:59:41;;;;;;;7.10;5.93;;;24.50;68.60;;;;;;5075781;28;20787;-55
2023/07/09 02:02:07;;;;;;;6.67;6.00;;;24.40;68.80;;;;;;5075585;28;20452;-55
2023/07/09 02:04:34;;;;;;;7.93;6.47;;;24.40;69.30;;;;;;5075614;28;20444;-55
2023/07/09 02:07:01;;;;;;;6.40;5.40;;;24.40;69.30;;;;;;5075263;28;20457;-55
2023/07/09 02:09:29;;;;;;;6.83;6.07;;;24.40;69.40;;;;;;5075540;28;20820;-55
2023/07/09 02:11:55;;;;;;;6.73;6.03;;;24.40;69.60;;;;;;5075287;28;20449;-55
2023/07/09 02:14:22;;;;;;;8.70;6.53;;;24.30;70.00;;;;;;5075342;28;20484;-55
2023/07/09 02:16:49;;;;;;;7.27;6.53;;;24.30;70.40;;;;;;5075410;28;20498;-55
2023/07/09 02:19:16;;;;;;;7.80;6.03;;;24.30;70.90;;;;;;5075097;28;20456;-55
2023/07/09 02:21:42;;;;;;;7.30;6.40;;;24.30;71.20;;;;;;5075555;28;20455;-55
2023/07/09 02:24:09;;;;;;;7.93;7.13;;;24.30;71.30;;;;;;5075393;28;20472;-55
2023/07/09 02:26:37;;;;;;;7.10;5.73;;;24.20;71.60;;;;;;5075350;28;20459;-55
2023/07/09 02:29:04;;;;;;;8.03;6.27;;;24.10;71.50;;;;;;5075027;28;20945;-55
2023/07/09 02:31:30;;;;;;;7.13;5.87;;;24.10;71.50;;;;;;5075300;28;20476;-55
2023/07/09 02:33:57;;;;;;;7.80;6.53;;;24.10;71.70;;;;;;5075063;28;20491;-55
2023/07/09 02:36:25;;;;;;;8.00;6.43;;;24.10;71.90;;;;;;5075051;28;20448;-55
2023/07/09 02:38:52;;;;;;;10.67;7.37;;;24.10;71.80;;;;;;5074972;28;20819;-55
2023/07/09 02:41:18;;;;;;;7.20;6.10;;;24.10;72.20;;;;;;5075046;28;20452;-55
2023/07/09 02:43:46;;;;;;;11.60;6.80;;;24.00;72.20;;;;;;5074888;28;20472;-55
2023/07/09 02:46:13;;;;;;;6.90;6.17;;;24.00;72.90;;;;;;5074738;28;20996;-55
2023/07/09 02:48:40;;;;;;;6.73;5.90;;;24.00;73.00;;;;;;5074795;28;20449;-55
2023/07/09 02:51:06;;;;;;;9.73;7.10;;;24.00;73.10;;;;;;5074873;28;20445;-55
2023/07/09 02:53:33;;;;;;;9.47;6.90;;;24.00;73.10;;;;;;5074484;28;20514;-55
2023/07/09 02:56:00;;;;;;;9.63;7.07;;;24.00;73.50;;;;;;5074838;28;20453;-55
2023/07/09 02:58:26;;;;;;;9.30;6.47;;;24.00;73.80;;;;;;5074437;28;20936;-55
2023/07/09 03:00:54;;;;;;;7.47;6.40;;;24.00;74.00;;;;;;5074634;28;20510;-55
2023/07/09 03:03:22;;;;;;;9.50;6.67;;;24.00;74.00;;;;;;5074537;28;20465;-55
2023/07/09 03:05:49;;;;;;;8.87;6.60;;;24.00;74.30;;;;;;5074694;28;20445;-55
2023/07/09 03:08:15;;;;;;;9.60;6.60;;;24.00;74.10;;;;;;5074607;28;20445;-55
2023/07/09 03:10:42;;;;;;;9.03;7.23;;;24.00;74.20;;;;;;5074416;28;20479;-55
2023/07/09 03:13:09;;;;;;;7.83;7.03;;;24.00;74.60;;;;;;5074524;28;20885;-55
2023/07/09 03:15:35;;;;;;;8.73;7.30;;;24.00;75.00;;;;;;5074208;28;20895;-55
2023/07/09 03:18:04;;;;;;;8.40;7.50;;;24.00;75.10;;;;;;5074191;28;20456;-55
2023/07/09 03:20:30;;;;;;;9.30;6.80;;;24.00;75.40;;;;;;5074453;28;20438;-55
2023/07/09 03:22:58;;;;;;;8.07;6.60;;;24.00;75.40;;;;;;5074050;28;20830;-55
2023/07/09 03:25:25;;;;;;;7.83;6.83;;;24.00;75.70;;;;;;5074166;28;20436;-55
2023/07/09 03:27:51;;;;;;;10.07;7.27;;;24.00;76.00;;;;;;5073676;28;20803;-55
2023/07/09 03:30:18;;;;;;;10.07;7.13;;;24.00;76.00;;;;;;5074100;28;20514;-55
2023/07/09 03:32:45;;;;;;;7.23;6.50;;;24.00;76.00;;;;;;5074867;28;20465;-55
2023/07/09 03:35:13;;;;;;;8.90;7.37;;;23.90;76.10;;;;;;5073762;28;20480;-55
2023/07/09 03:37:39;;;;;;;8.23;7.13;;;23.90;76.60;;;;;;5073580;28;20988;-55
2023/07/09 03:40:09;;;;;;;10.23;8.03;;;23.90;76.70;;;;;;5073634;28;20851;-55
2023/07/09 03:42:36;;;;;;;8.53;7.17;;;23.90;76.90;;;;;;5073722;28;20468;-55
2023/07/09 03:45:03;;;;;;;10.13;7.10;;;23.90;77.10;;;;;;5073718;28;20456;-55
2023/07/09 03:47:30;;;;;;;8.33;6.87;;;23.90;77.20;;;;;;5073744;28;20452;-55
2023/07/09 03:49:56;;;;;;;9.40;7.33;;;23.90;77.20;;;;;;5072993;28;20455;-55
2023/07/09 03:52:24;;;;;;;11.80;7.73;;;23.90;77.00;;;;;;5073539;28;20477;-55
2023/07/09 03:54:51;;;;;;;8.60;7.10;;;23.90;77.10;;;;;;5073650;28;20480;-55
2023/07/09 03:57:18;;;;;;;7.77;6.53;;;23.90;76.90;;;;;;5073543;28;20478;-55
2023/07/09 03:59:44;;;;;;;10.50;7.40;;;23.90;77.20;;;;;;5073801;28;20817;-55
2023/07/09 04:02:11;;;;;;;7.83;7.03;;;23.80;77.10;;;;;;5073444;28;20452;-55
2023/07/09 04:04:38;;;;;;;8.47;7.47;;;23.80;77.20;;;;;;5073595;28;20436;-55
2023/07/09 04:07:05;;;;;;;9.07;7.37;;;23.80;77.20;;;;;;5075327;28;20444;-55
2023/07/09 04:09:33;;;;;;;9.00;6.77;;;23.90;77.30;;;;;;5073522;28;20460;-55
2023/07/09 04:12:01;;;;;;;8.40;7.23;;;23.80;77.10;;;;;;5073258;28;20448;-55
2023/07/09 04:14:27;;;;;;;8.17;7.03;;;23.90;77.50;;;;;;5073723;28;20484;-55
2023/07/09 04:16:54;;;;;;;7.87;6.70;;;23.80;77.50;;;;;;5073261;28;20455;-55
2023/07/09 04:19:21;;;;;;;8.20;6.57;;;23.80;78.10;;;;;;5072978;28;20472;-55
2023/07/09 04:21:48;;;;;;;9.50;6.70;;;23.80;77.80;;;;;;5073303;28;20451;-55
2023/07/09 04:24:16;;;;;;;9.00;6.67;;;23.80;78.10;;;;;;5073171;28;20476;-55
2023/07/09 04:26:45;;;;;;;7.17;6.47;;;23.80;78.40;;;;;;5073196;28;20472;-55
2023/07/09 04:29:11;;;;;;;8.57;7.67;;;23.80;78.60;;;;;;5073117;28;20455;-55
2023/07/09 04:31:38;;;;;;;10.90;7.80;;;23.90;78.70;;;;;;5073257;28;20449;-55
2023/07/09 04:34:06;;;;;;;9.03;6.10;;;23.90;78.90;;;;;;5072781;28;20841;-55
2023/07/09 04:36:33;;;;;;;11.23;7.60;;;23.90;79.00;;;;;;5073075;28;20428;-55
2023/07/09 04:39:00;;;;;;;8.87;7.07;;;23.90;79.00;;;;;;5073183;28;20440;-55
2023/07/09 04:41:26;;;;;;;11.90;7.73;;;24.00;79.10;;;;;;5073324;28;20808;-55
2023/07/09 04:43:54;;;;;;;8.23;7.40;;;24.00;79.10;;;;;;5072988;28;20471;-55
2023/07/09 04:46:21;;;;;;;8.93;8.03;;;24.10;79.30;;;;;;5072964;28;20436;-55
2023/07/09 04:48:48;;;;;;;8.87;7.80;;;24.10;79.30;;;;;;5073038;28;20441;-55
2023/07/09 04:51:14;;;;;;;8.60;7.30;;;24.10;79.40;;;;;;5072858;28;20440;-55
2023/07/09 04:53:42;;;;;;;9.53;7.60;;;24.20;79.40;;;;;;5072893;28;20526;-55
2023/07/09 04:56:09;;;;;;;8.80;7.17;;;24.30;79.00;;;;;;5072896;28;20491;-55
2023/07/09 04:58:36;;;;;;;9.63;7.77;;;24.30;78.60;;;;;;5073001;28;20589;-55
2023/07/09 05:01:04;;;;;;;9.80;8.07;;;24.30;78.00;;;;;;5074859;28;20817;-55
2023/07/09 05:03:31;;;;;;;9.43;7.97;;;24.40;77.60;;;;;;5076808;28;20571;-55
2023/07/09 05:05:57;;;;;;;8.77;7.63;;;24.50;77.10;;;;;;5076677;28;20463;-55
2023/07/09 05:08:24;;;;;;;16.27;9.10;;;24.50;77.20;;;;;;5076715;28;20455;-55
2023/07/09 05:10:52;;;;;;;9.50;7.73;;;24.50;77.50;;;;;;5077451;28;20452;-55
2023/07/09 05:13:20;;;;;;;9.13;7.20;;;24.60;78.00;;;;;;5076283;28;20499;-55
2023/07/09 05:15:48;;;;;;;10.07;8.50;;;24.70;77.80;;;;;;5076499;28;20477;-55
2023/07/09 05:18:16;;;;;;;11.80;8.30;;;24.70;77.40;;;;;;5076477;28;20862;-55
2023/07/09 05:20:43;;;;;;;15.90;10.53;;;24.70;77.00;;;;;;5076651;28;20428;-55
2023/07/09 05:23:11;;;;;;;16.00;10.00;;;24.80;76.60;;;;;;5076463;28;20468;-55
2023/07/09 05:25:38;;;;;;;13.13;9.70;;;24.90;76.40;;;;;;5079800;28;20813;-55
2023/07/09 05:28:05;;;;;;;12.20;8.90;;;24.90;75.70;;;;;;5076532;28;20463;-55
2023/07/09 05:30:32;;;;;;;11.23;9.37;;;25.00;75.30;;;;;;5076462;28;20453;-55
2023/07/09 05:32:59;;;;;;;13.50;9.40;;;25.00;75.20;;;;;;5085220;28;20470;-55
2023/07/09 05:35:28;;;;;;;11.30;8.80;;;25.10;75.30;;;;;;5096109;28;20475;-55
2023/07/09 05:37:55;;;;;;;14.73;8.47;;;25.10;74.80;;;;;;5096410;28;20455;-55
2023/07/09 05:40:22;;;;;;;9.30;8.40;;;25.20;74.50;;;;;;5096464;28;20542;-55
2023/07/09 05:42:49;;;;;;;11.37;8.77;;;25.20;74.20;;;;;;5096477;28;20471;-55
2023/07/09 05:45:16;;;;;;;9.70;7.93;;;25.30;74.00;;;;;;5096329;28;20448;-55
2023/07/09 05:47:43;;;;;;;10.87;7.93;;;25.40;74.00;;;;;;5096850;28;20448;-55
2023/07/09 05:50:10;;;;;;;12.03;9.53;;;25.40;73.20;;;;;;5096311;28;20857;-55
2023/07/09 05:52:38;;;;;;;13.30;8.53;;;25.50;73.20;;;;;;5096643;28;20472;-55
2023/07/09 05:55:06;;;;;;;15.03;8.30;;;25.50;72.80;;;;;;5096039;28;20541;-55
2023/07/09 05:57:33;;;;;;;9.60;8.37;;;25.60;72.60;;;;;;5096095;28;20452;-55
2023/07/09 05:59:59;;;;;;;10.60;8.23;;;25.70;72.50;;;;;;5096052;28;20455;-55
2023/07/09 06:02:26;;;;;;;10.87;8.00;;;25.70;72.10;;;;;;5095975;28;20470;-55
2023/07/09 06:04:53;;;;;;;11.33;8.77;;;25.80;71.90;;;;;;5095935;28;20448;-55
2023/07/09 06:07:20;;;;;;;11.70;8.03;;;25.90;71.60;;;;;;5095899;28;20444;-55
2023/07/09 06:09:48;;;;;;;11.90;7.50;;;26.00;71.50;;;;;;5095846;28;20451;-55
2023/07/09 06:12:15;;;;;;;9.23;7.20;;;26.10;71.00;;;;;;5095083;28;20495;-55
2023/07/09 06:14:42;;;;;;;8.10;7.30;;;26.10;70.80;;;;;;5095843;28;20463;-55
2023/07/09 06:17:08;;;;;;;9.73;7.60;;;26.30;70.60;;;;;;5095404;28;20852;-56
2023/07/09 06:19:35;;;;;;;8.87;7.43;;;26.30;70.70;;;;;;5095531;28;20501;-55
2023/07/09 06:22:01;;;;;;;8.53;6.50;;;26.40;70.20;;;;;;5095848;28;20553;-55
2023/07/09 06:24:28;;;;;;;10.30;7.30;;;26.50;69.80;;;;;;5095616;28;20505;-56
2023/07/09 06:26:56;;;;;;;10.43;8.60;;;26.60;69.30;;;;;;5095763;28;20811;-54
2023/07/09 06:29:23;;;;;;;10.33;7.33;;;26.70;69.40;;;;;;5095747;28;20451;-54
2023/07/09 06:31:50;;;;;;;9.23;7.20;;;26.70;68.80;;;;;;5096094;28;20446;-55
2023/07/09 06:34:16;;;;;;;9.13;7.00;;;26.80;68.50;;;;;;5094960;28;20826;-55
2023/07/09 06:36:43;;;;;;;10.57;7.30;;;26.90;68.20;;;;;;5094828;28;21005;-55
2023/07/09 06:39:10;;;;;;;12.70;7.40;;;27.00;67.70;;;;;;5095353;28;20460;-55
2023/07/09 06:41:38;;;;;;;9.03;7.10;;;27.10;67.30;;;;;;5095235;28;20455;-55
2023/07/09 06:44:07;;;;;;;8.90;7.40;;;27.30;67.00;;;;;;5095388;28;20467;-55
2023/07/09 06:46:34;;;;;;;11.73;7.70;;;27.40;66.50;;;;;;5094983;28;20455;-55
2023/07/09 06:49:01;;;;;;;9.43;7.70;;;27.50;66.30;;;;;;5095074;28;20472;-55
2023/07/09 06:51:28;;;;;;;9.80;8.20;;;27.60;65.50;;;;;;5095135;28;20459;-55
2023/07/09 06:53:54;;;;;;;9.07;7.63;;;27.70;65.30;;;;;;5084965;28;20469;-55
2023/07/09 06:56:21;;;;;;;10.47;8.50;;;27.90;64.60;;;;;;5074620;28;20932;-55
2023/07/09 06:58:48;;;;;;;9.50;8.03;;;28.00;64.10;;;;;;5074687;28;20502;-55
2023/07/09 07:01:16;;;;;;;11.87;8.27;;;28.10;63.40;;;;;;5074370;28;20456;-55
2023/07/09 07:03:43;;;;;;;10.53;8.37;;;28.30;63.20;;;;;;5074554;28;20503;-55
2023/07/09 07:06:09;;;;;;;12.03;7.33;;;28.40;62.40;;;;;;5076659;28;20444;-54
2023/07/09 07:08:36;;;;;;;14.50;7.90;;;28.60;61.90;;;;;;5085921;28;20957;-55
2023/07/09 07:11:05;;;;;;;7.10;6.40;;;28.70;61.70;;;;;;5087656;28;20460;-55
2023/07/09 07:13:34;;;;;;;7.40;6.70;;;28.90;61.30;;;;;;5074316;28;20555;-55
2023/07/09 07:16:02;;;;;;;7.80;7.00;;;29.10;60.80;;;;;;5074211;28;20489;-55
2023/07/09 07:18:30;;;;;;;11.53;7.80;;;29.20;59.50;;;;;;5073915;28;20468;-55
2023/07/09 07:20:57;;;;;;;8.10;6.37;;;29.40;59.30;;;;;;5074230;28;20445;-55
2023/07/09 07:23:24;;;;;;;8.57;7.10;;;29.50;58.50;;;;;;5073302;28;20464;-55
2023/07/09 07:25:51;;;;;;;7.50;6.67;;;29.70;58.30;;;;;;5073984;28;20449;-55
2023/07/09 07:28:18;;;;;;;9.37;7.40;;;29.90;57.30;;;;;;5073818;28;20869;-55
2023/07/09 07:30:45;;;;;;;9.67;7.90;;;30.00;57.30;;;;;;5074070;28;20456;-55
2023/07/09 07:33:16;;;;;;;8.70;6.53;;;30.20;57.00;;;;;;5073931;28;20471;-55
2023/07/09 07:35:44;;;;;;;8.27;6.77;;;30.40;56.20;;;;;;5073566;28;20973;-55
2023/07/09 07:38:11;;;;;;;8.30;6.00;;;30.60;56.40;;;;;;5073867;28;20452;-55
2023/07/09 07:40:38;;;;;;;12.03;6.87;;;30.80;55.10;;;;;;5073683;28;20942;-55
2023/07/09 07:43:04;;;;;;;13.00;6.80;;;31.00;55.10;;;;;;5074581;28;20471;-55
2023/07/09 07:45:31;;;;;;;7.80;7.10;;;31.10;55.10;;;;;;5073569;28;20436;-55
2023/07/09 07:47:58;;;;;;;15.83;7.43;;;31.30;54.70;;;;;;5073829;28;20475;-55
2023/07/09 07:50:24;;;;;;;8.33;6.20;;;31.50;54.40;;;;;;5073790;28;20493;-55
2023/07/09 07:52:52;;;;;;;7.67;5.90;;;31.70;53.50;;;;;;5073619;28;20525;-55
2023/07/09 07:55:19;;;;;;;9.10;6.43;;;31.90;52.40;;;;;;5073240;28;20933;-55
2023/07/09 07:57:46;;;;;;;6.60;6.00;;;32.00;51.60;;;;;;5073622;28;20830;-55
2023/07/09 08:00:14;;;;;;;8.30;6.70;;;32.30;51.50;;;;;;5073621;28;20462;-55
2023/07/09 08:02:41;;;;;;;8.53;6.50;;;32.50;51.00;;;;;;5073516;28;20486;-55
2023/07/09 08:05:08;;;;;;;7.10;6.40;;;32.70;50.00;;;;;;5073138;28;20535;-55
2023/07/09 08:07:34;;;;;;;9.73;6.73;;;32.80;49.20;;;;;;5073551;28;20505;-55
2023/07/09 08:10:03;;;;;;;10.50;6.93;;;33.10;48.80;;;;;;5073420;28;20445;-55
2023/07/09 08:12:30;;;;;;;10.20;6.80;;;33.20;48.10;;;;;;5073311;28;20571;-55
2023/07/09 08:14:56;;;;;;;9.10;7.50;;;33.40;46.20;;;;;;5073126;28;20451;-55
2023/07/09 08:17:23;;;;;;;9.20;6.63;;;33.60;46.50;;;;;;5073003;28;20917;-55
2023/07/09 08:19:54;;;;;;;8.50;5.77;;;33.70;46.70;;;;;;5073105;28;20834;-55
2023/07/09 08:22:21;;;;;;;6.57;5.97;;;33.90;45.90;;;;;;5073331;28;20472;-55
2023/07/09 08:24:48;;;;;;;7.60;6.90;;;34.10;45.70;;;;;;5073615;28;20454;-55
2023/07/09 08:27:17;;;;;;;7.40;6.20;;;34.40;45.30;;;;;;5073303;28;20510;-56
2023/07/09 08:29:43;;;;;;;7.47;6.70;;;34.50;44.20;;;;;;5073182;28;20454;-55
2023/07/09 08:32:11;;;;;;;7.80;6.17;;;34.70;43.80;;;;;;5073358;28;20854;-55
2023/07/09 08:34:39;;;;;;;7.40;6.30;;;34.80;43.30;;;;;;5073322;28;20448;-55
2023/07/09 08:37:06;;;;;;;11.17;7.17;;;35.00;43.20;;;;;;5077473;28;20476;-55
2023/07/09 08:39:33;;;;;;;6.33;5.73;;;35.20;42.90;;;;;;5077187;28;20981;-56
2023/07/09 08:42:03;;;;;;;7.50;6.03;;;35.40;42.40;;;;;;5077306;28;20452;-56
2023/07/09 08:44:53;;;;;;;7.80;6.17;;;35.60;41.70;;;;;;5077377;28;20440;-55
2023/07/09 08:47:29;;;;;;;6.97;5.87;;;35.80;40.10;;;;;;5077055;28;20814;-55
2023/07/09 08:50:00;;;;;;;6.50;5.90;;;36.00;39.40;;;;;;5077259;28;20933;-55
2023/07/09 08:52:33;;;;;;;6.53;5.90;;;36.10;38.20;;;;;;5077489;28;20480;-55
2023/07/09 08:55:05;;;;;;;7.30;6.30;;;36.20;38.90;;;;;;5078203;28;20432;-55
2023/07/09 08:57:36;;;;;;;7.07;6.17;;;36.40;39.80;;;;;;5077744;28;20252;-55
2023/07/09 09:00:13;;;;;;;6.80;6.10;;;36.60;38.60;;;;;;5076226;28;20436;-55
2023/07/09 09:02:46;;;;;;;6.90;6.30;;;36.80;37.50;;;;;;5077146;28;20226;-55
2023/07/09 09:05:18;;;;;;;6.93;5.97;;;37.00;38.00;;;;;;5077260;28;20186;-55
2023/07/09 09:07:48;;;;;;;9.30;5.90;;;37.20;37.20;;;;;;5077047;28;20189;-55
2023/07/09 09:10:19;;;;;;;9.07;5.73;;;37.30;36.00;;;;;;5077584;28;20241;-55
2023/07/09 09:12:57;;;;;;;6.80;6.20;;;37.60;36.50;;;;;;5076374;28;20631;-55
2023/07/09 09:15:26;;;;;;;6.72;5.78;;;37.70;37.10;;;;;;5076752;28;20190;-55
2023/07/09 09:17:56;;;;;;;6.80;5.75;;;38.00;36.70;;;;;;5076711;28;20233;-55
2023/07/09 09:20:24;;;;;;;5.22;4.75;;;38.20;35.20;;;;;;5076494;28;20291;-55
2023/07/09 09:22:57;;;;;;;7.45;5.05;;;38.30;33.20;;;;;;5076142;28;20625;-56
2023/07/09 09:25:28;;;;;;;7.32;5.07;;;38.40;32.80;;;;;;5076300;28;20207;-56
2023/07/09 09:27:55;;;;;;;5.40;4.88;;;38.60;33.30;;;;;;5076522;28;20187;-56
2023/07/09 09:30:25;;;;;;;7.70;5.75;;;38.80;33.40;;;;;;5076066;28;20691;-56
2023/07/09 09:32:56;;;;;;;6.22;5.15;;;38.90;31.70;;;;;;5076240;28;20224;-56
2023/07/09 09:35:28;;;;;;;5.70;5.15;;;39.00;31.90;;;;;;5076378;28;20190;-56
2023/07/09 09:37:56;;;;;;;6.30;5.65;;;39.30;32.60;;;;;;5076160;28;20206;-56
2023/07/09 09:40:25;;;;;;;6.85;5.70;;;39.40;31.50;;;;;;5076136;28;20206;-56
2023/07/09 09:42:53;;;;;;;5.50;5.00;;;39.50;30.70;;;;;;5076096;28;20230;-55
2023/07/09 09:45:22;;;;;;;7.18;5.45;;;39.70;30.80;;;;;;5075790;28;20733;-56
2023/07/09 09:47:50;;;;;;;6.00;5.47;;;39.90;31.50;;;;;;5074800;28;20251;-56
2023/07/09 09:50:19;;;;;;;6.20;5.28;;;40.20;32.00;;;;;;5075951;28;20224;-56
2023/07/09 09:52:47;;;;;;;5.93;4.95;;;40.40;32.50;;;;;;5075568;28;20674;-56
2023/07/09 09:55:19;;;;;;;6.00;5.50;;;40.60;30.50;;;;;;5075707;28;20216;-55
2023/07/09 09:57:50;;;;;;;6.30;5.70;;;40.70;28.60;;;;;;5075750;28;20212;-56
2023/07/09 10:00:17;;;;;;;5.72;5.03;;;40.90;28.60;;;;;;5076063;28;20218;-56
2023/07/09 10:02:45;;;;;;;6.07;5.57;;;41.10;28.60;;;;;;5075758;28;20252;-56
2023/07/09 10:05:15;;;;;;;5.90;5.32;;;41.40;29.40;;;;;;5075967;28;20209;-55
2023/07/09 10:07:48;;;;;;;5.82;5.32;;;41.70;29.60;;;;;;5075380;28;20729;-56
2023/07/09 10:10:21;;;;;;;6.38;5.78;;;42.00;29.50;;;;;;5075673;28;20201;-56
2023/07/09 10:12:52;;;;;;;6.60;5.30;;;42.30;28.80;;;;;;5075808;28;20221;-56
2023/07/09 10:15:29;;;;;;;5.40;4.90;;;42.60;26.90;;;;;;5075480;28;20205;-55
2023/07/09 10:18:00;;;;;;;5.47;4.97;;;42.90;26.90;;;;;;5075024;28;20701;-56
2023/07/09 10:20:36;;;;;;;6.45;5.32;;;43.20;27.00;;;;;;5075516;28;20186;-56
2023/07/09 10:23:13;;;;;;;6.22;5.10;;;43.50;25.80;;;;;;5075462;28;20226;-56
2023/07/09 10:25:45;;;;;;;5.00;4.57;;;43.80;24.80;;;;;;5075025;28;20543;-56
2023/07/09 10:28:29;;;;;;;5.57;4.38;;;44.10;25.70;;;;;;5075220;28;20179;-56
2023/07/09 10:31:06;;;;;;;9.30;5.35;;;44.50;25.20;;;;;;5075195;28;20557;-56
2023/07/09 10:33:44;;;;;;;7.32;5.20;;;44.90;23.90;;;;;;5075112;28;20313;-56
2023/07/09 10:36:26;;;;;;;5.22;4.72;;;45.30;24.00;;;;;;5075145;28;20186;-56
2023/07/09 10:39:00;;;;;;;6.53;4.40;;;45.60;21.50;;;;;;5075140;28;20190;-56
2023/07/09 10:41:27;;;;;;;6.10;4.30;;;45.50;21.30;;;;;;5075037;28;20189;-56
2023/07/09 10:44:00;;;;;;;5.13;4.63;;;45.70;21.60;;;;;;5074751;28;20233;-56
2023/07/09 10:46:32;;;;;;;7.20;4.80;;;46.10;22.00;;;;;;5075128;28;20186;-56
2023/07/09 10:49:02;;;;;;;5.07;4.32;;;46.50;22.00;;;;;;5074810;28;20211;-56
2023/07/09 10:51:34;;;;;;;5.13;4.18;;;47.00;20.60;;;;;;5074450;28;20186;-56
2023/07/09 10:54:06;;;;;;;5.18;4.40;;;47.40;21.20;;;;;;5074769;28;20304;-56
2023/07/09 10:56:36;;;;;;;4.75;4.30;;;47.90;21.20;;;;;;5074563;28;20206;-56
2023/07/09 10:59:11;;;;;;;4.43;4.03;;;48.50;20.90;;;;;;5074447;28;20206;-56
2023/07/09 11:01:41;;;;;;;4.97;4.57;;;49.00;20.30;;;;;;5074697;28;20190;-56
2023/07/09 11:04:25;;;;;;;4.93;4.43;;;49.40;17.80;;;;;;5074989;28;20734;-56
2023/07/09 11:06:57;;;;;;;4.72;4.13;;;49.70;17.40;;;;;;5074996;28;20236;-56
2023/07/09 11:09:29;;;;;;;3.97;3.65;;;50.00;18.60;;;;;;5074365;28;20182;-56
2023/07/09 11:11:59;;;;;;;3.42;3.17;;;50.20;17.30;;;;;;5074231;28;20236;-56
2023/07/09 11:14:32;;;;;;;4.68;4.18;;;50.40;17.30;;;;;;5074483;28;20194;-56
2023/07/09 11:17:00;;;;;;;6.10;3.83;;;50.50;16.70;;;;;;5074048;28;20209;-56
2023/07/09 11:19:28;;;;;;;4.03;3.63;;;50.50;17.30;;;;;;5073967;28;20217;-56
2023/07/09 11:22:07;;;;;;;4.80;4.00;;;50.70;17.70;;;;;;5074068;28;20197;-56
2023/07/09 11:24:36;;;;;;;4.90;4.40;;;51.10;18.70;;;;;;5074020;28;20637;-56
2023/07/09 11:27:03;;;;;;;4.57;3.90;;;51.40;17.70;;;;;;5073930;28;20198;-56
2023/07/09 11:29:31;;;;;;;6.40;4.13;;;51.60;17.50;;;;;;5073907;28;20225;-56
2023/07/09 11:32:09;;;;;;;4.65;4.03;;;51.80;17.50;;;;;;5073755;28;20293;-56
2023/07/09 11:34:47;;;;;;;4.95;4.40;;;51.90;17.30;;;;;;5073865;28;20190;-56
2023/07/09 11:37:16;;;;;;;7.00;4.82;;;51.90;17.30;;;;;;5073732;28;20676;-56
2023/07/09 11:39:45;;;;;;;4.68;4.28;;;51.80;17.60;;;;;;5073762;28;20201;-56
2023/07/09 11:42:26;;;;;;;5.43;4.50;;;51.50;17.00;;;;;;5072643;28;20438;-56
2023/07/09 11:44:58;;;;;;;7.18;5.00;;;51.10;17.40;;;;;;5073639;28;20198;-56
2023/07/09 11:47:28;;;;;;;5.80;4.88;;;50.60;18.60;;;;;;5073529;28;20213;-56
2023/07/09 11:49:59;;;;;;;5.28;4.88;;;50.10;17.60;;;;;;5073174;28;20671;-55
2023/07/09 11:52:33;;;;;;;5.28;4.32;;;49.50;17.90;;;;;;5073446;28;20259;-55
2023/07/09 11:55:03;;;;;;;5.05;4.55;;;49.10;18.60;;;;;;5073620;28;20251;-56
2023/07/09 11:57:30;;;;;;;4.85;4.43;;;48.60;18.60;;;;;;5073401;28;20691;-55
2023/07/09 12:00:00;;;;;;;4.78;4.28;;;48.40;18.50;;;;;;5073596;28;20293;-55
2023/07/09 12:02:33;;;;;;;4.43;3.53;;;48.20;17.50;;;;;;5073483;28;20726;-55
2023/07/09 12:05:03;;;;;;;4.78;3.55;;;48.00;16.70;;;;;;5073941;28;20243;-55
2023/07/09 12:07:31;;;;;;;5.35;3.85;;;47.60;17.90;;;;;;5073594;28;20198;-55
2023/07/09 12:09:57;;;;;;;4.55;3.50;;;47.60;17.30;;;;;;5072753;28;20208;-55
2023/07/09 12:12:26;;;;;;;5.05;3.88;;;47.60;17.20;;;;;;5073333;28;20228;-55
2023/07/09 12:14:53;;;;;;;5.40;3.45;;;47.70;17.00;;;;;;5073279;28;20198;-55
2023/07/09 12:17:19;;;;;;;5.53;3.95;;;47.80;17.10;;;;;;5073215;28;20221;-54
2023/07/09 12:19:46;;;;;;;7.75;3.78;;;47.30;17.20;;;;;;5073087;28;20213;-59
2023/07/09 12:22:19;;;;;;;5.88;3.35;;;46.60;18.30;;;;;;5075021;28;20576;-55
2023/07/09 12:24:49;;;;;;;4.40;4.00;;;45.90;18.00;;;;;;5074808;28;20196;-55
2023/07/09 12:27:20;;;;;;;4.85;3.80;;;45.30;18.70;;;;;;5073586;28;20540;-55
2023/07/09 12:29:47;;;;;;;6.30;3.88;;;44.70;18.90;;;;;;5072977;28;20225;-55
2023/07/09 12:32:16;;;;;;;6.70;3.92;;;44.30;19.90;;;;;;5073181;28;20565;-55
2023/07/09 12:34:42;;;;;;;4.15;3.47;;;44.00;20.00;;;;;;5072980;28;20205;-55
2023/07/09 12:37:14;;;;;;;6.63;3.70;;;43.90;19.70;;;;;;5072991;28;20221;-55
2023/07/09 12:39:40;;;;;;;5.15;3.33;;;43.90;19.00;;;;;;5072963;28;20216;-55
2023/07/09 12:42:17;;;;;;;7.47;4.05;;;43.90;19.00;;;;;;5072765;28;20201;-55
2023/07/09 12:44:45;;;;;;;3.88;3.50;;;43.60;20.70;;;;;;5072744;28;20659;-55
2023/07/09 12:47:15;;;;;;;6.85;4.00;;;43.10;21.40;;;;;;5072951;28;20644;-55
2023/07/09 12:49:44;;;;;;;5.25;4.70;;;42.60;22.60;;;;;;5072998;28;20236;-55
2023/07/09 12:52:17;;;;;;;6.63;4.50;;;42.10;23.70;;;;;;5072628;28;20672;-55
2023/07/09 12:54:55;;;;;;;4.65;4.22;;;41.60;24.60;;;;;;5072630;28;20663;-55